createdAt,value
2024-04-16T00:01:41.870Z,98767.80
2024-04-16T00:06:40.665Z,98750.60
2024-04-16T00:11:40.506Z,98747.00
2024-04-16T00:16:45.256Z,98731.60
2024-04-16T00:21:44.376Z,98731.20
2024-04-16T00:26:43.792Z,98713.00
2024-04-16T00:31:42.480Z,98684.20
2024-04-16T00:36:41.548Z,98642.00
2024-04-16T00:41:40.487Z,98639.40
2024-04-16T00:46:41.903Z,98625.40
2024-04-16T00:51:42.159Z,98627.00
2024-04-16T00:56:43.618Z,98632.00
2024-04-16T01:01:43.547Z,98663.20
2024-04-16T01:06:42.894Z,98678.00
2024-04-16T01:11:42.361Z,98692.60
2024-04-16T01:16:41.446Z,98645.40
2024-04-16T01:21:40.574Z,98627.00
2024-04-16T01:26:39.374Z,98677.60
2024-04-16T01:31:39.410Z,98687.00
2024-04-16T01:36:38.809Z,98696.60
2024-04-16T01:41:38.115Z,98710.20
2024-04-16T01:46:36.602Z,98707.80
2024-04-16T01:51:35.987Z,98702.80
2024-04-16T01:56:34.739Z,98671.80
2024-04-16T02:01:33.291Z,98685.60
2024-04-16T02:06:32.452Z,98659.00
2024-04-16T02:11:31.313Z,98611.00
2024-04-16T02:16:30.526Z,98603.60
2024-04-16T02:21:29.616Z,98592.20
2024-04-16T02:26:28.906Z,98574.20
2024-04-16T02:31:28.786Z,98559.40
2024-04-16T02:36:28.030Z,98543.40
2024-04-16T02:41:27.275Z,98509.40
2024-04-16T02:46:26.186Z,98492.20
2024-04-16T02:51:24.565Z,98483.40
2024-04-16T02:56:23.227Z,98496.60
2024-04-16T03:01:21.886Z,98498.60
2024-04-16T03:06:20.400Z,98497.40
2024-04-16T03:11:19.182Z,98505.00
2024-04-16T03:16:18.626Z,98505.60
2024-04-16T03:21:18.317Z,98498.00
2024-04-16T03:26:18.403Z,98496.00
2024-04-16T03:31:19.048Z,98494.40
2024-04-16T03:36:18.598Z,98489.80
2024-04-16T03:41:17.658Z,98473.80
2024-04-16T03:46:16.724Z,98473.20
2024-04-16T03:51:16.140Z,98469.40
2024-04-16T03:56:16.370Z,98476.00
2024-04-16T04:01:16.475Z,98472.80
2024-04-16T04:06:15.630Z,98476.20
2024-04-16T04:11:14.927Z,98497.40
2024-04-16T04:16:15.333Z,98505.80
2024-04-16T04:21:14.287Z,98529.40
2024-04-16T04:26:13.768Z,98524.40
2024-04-16T04:31:29.568Z,98546.00
2024-04-16T04:36:29.631Z,98539.40
2024-04-16T04:41:30.826Z,98539.00
2024-04-16T04:46:30.241Z,98552.00
2024-04-16T04:51:28.888Z,98576.40
2024-04-16T04:56:29.444Z,98582.20
2024-04-16T05:01:29.372Z,98579.60
2024-04-16T05:06:28.758Z,98584.40
2024-04-16T05:11:27.903Z,98588.40
2024-04-16T05:16:27.540Z,98597.00
2024-04-16T05:21:26.424Z,98617.20
2024-04-16T05:26:27.695Z,98636.40
2024-04-16T05:31:27.979Z,98669.40
2024-04-16T05:36:30.940Z,98677.00
2024-04-16T05:41:30.424Z,98678.40
2024-04-16T05:46:30.521Z,98696.80
2024-04-16T05:51:30.478Z,98719.60
2024-04-16T05:56:29.248Z,98703.00
2024-04-16T06:01:28.442Z,98705.60
2024-04-16T06:06:28.746Z,98710.40
2024-04-16T06:11:27.218Z,98727.80
2024-04-16T06:16:26.807Z,98707.00
2024-04-16T06:21:26.351Z,98705.80
2024-04-16T06:26:25.524Z,98721.40
2024-04-16T06:31:24.211Z,98709.40
2024-04-16T06:36:23.803Z,98727.60
2024-04-16T06:41:22.907Z,98728.00
2024-04-16T06:46:22.217Z,98748.20
2024-04-16T06:51:21.581Z,98745.80
2024-04-16T06:56:21.075Z,98753.00
2024-04-16T07:01:20.206Z,98761.80
2024-04-16T07:06:19.164Z,98751.60
2024-04-16T07:11:18.374Z,98753.60
2024-04-16T07:16:17.357Z,98762.00
2024-04-16T07:21:16.728Z,98757.00
2024-04-16T07:26:16.728Z,98752.80
2024-04-16T07:31:19.246Z,98747.20
2024-04-16T07:36:20.235Z,98779.60
2024-04-16T07:41:22.018Z,98775.40
2024-04-16T07:46:21.987Z,98787.80
2024-04-16T07:51:22.722Z,98797.80
2024-04-16T07:56:25.214Z,98806.60
2024-04-16T08:01:31.769Z,98819.60
2024-04-16T08:06:34.813Z,98808.40
2024-04-16T08:11:34.792Z,98811.60
2024-04-16T08:16:35.324Z,98796.60
2024-04-16T08:21:38.948Z,98811.60
2024-04-16T08:26:38.763Z,98789.40
2024-04-16T08:31:37.502Z,98774.00
2024-04-16T08:36:39.522Z,98789.20
2024-04-16T08:41:40.862Z,98781.20
2024-04-16T08:46:42.747Z,98791.40
2024-04-16T08:51:51.291Z,98798.80
2024-04-16T08:56:55.477Z,98817.40
2024-04-16T09:01:57.519Z,98852.40
2024-04-16T09:07:00.480Z,98876.00
2024-04-16T09:12:00.246Z,98876.00
2024-04-16T09:16:59.633Z,98881.80
2024-04-16T09:22:04.014Z,98897.00
2024-04-16T09:27:11.883Z,98914.20
2024-04-16T09:32:12.359Z,98929.60
2024-04-16T09:37:12.203Z,98940.40
2024-04-16T09:42:13.947Z,98936.80
2024-04-16T09:47:15.269Z,98943.40
2024-04-16T09:52:16.870Z,98937.40
2024-04-16T09:57:20.467Z,98927.60
2024-04-16T10:02:23.655Z,98929.00
2024-04-16T10:07:26.650Z,98936.20
2024-04-16T10:12:28.323Z,98960.80
2024-04-16T10:17:30.943Z,98936.00
2024-04-16T10:22:48.421Z,98938.60
2024-04-16T10:27:57.481Z,98928.40
2024-04-16T10:33:01.268Z,98931.80
2024-04-16T10:38:06.574Z,98933.80
2024-04-16T10:43:13.056Z,98934.00
2024-04-16T10:48:14.179Z,98944.00
2024-04-16T10:53:19.872Z,98925.20
2024-04-16T10:58:20.272Z,98927.00
2024-04-16T11:03:21.035Z,98911.00
2024-04-16T11:08:22.449Z,98921.00
2024-04-16T11:13:23.354Z,98897.80
2024-04-16T11:18:24.787Z,98914.40
2024-04-16T11:23:24.393Z,98902.20
2024-04-16T11:28:23.139Z,98927.20
2024-04-16T11:33:26.581Z,98930.60
2024-04-16T11:38:36.549Z,98921.00
2024-04-16T11:43:37.325Z,98916.60
2024-04-16T11:48:37.763Z,98913.60
2024-04-16T11:53:38.946Z,98903.00
2024-04-16T11:58:38.379Z,98919.60
2024-04-16T12:03:38.125Z,98908.00
2024-04-16T12:08:37.951Z,98905.00
2024-04-16T12:13:37.052Z,98904.20
2024-04-16T12:18:38.972Z,98909.60
2024-04-16T12:23:39.918Z,98909.00
2024-04-16T12:28:38.916Z,98919.40
2024-04-16T12:33:38.246Z,98913.20
2024-04-16T12:38:37.205Z,98909.60
2024-04-16T12:43:36.298Z,98909.20
2024-04-16T12:48:35.932Z,98908.80
2024-04-16T12:53:38.627Z,98901.00
2024-04-16T12:58:38.325Z,98886.40
2024-04-16T13:03:37.919Z,98881.00
2024-04-16T13:08:38.281Z,98898.60
2024-04-16T13:13:37.551Z,98907.20
2024-04-16T13:18:41.070Z,98898.80
2024-04-16T13:23:40.670Z,98895.40
2024-04-16T13:28:42.468Z,98918.80
2024-04-16T13:33:42.278Z,98908.20
2024-04-16T13:38:43.269Z,98901.20
2024-04-16T13:43:42.968Z,98903.80
2024-04-16T13:48:44.195Z,98888.20
2024-04-16T13:53:43.411Z,98890.40
2024-04-16T13:58:44.326Z,98896.60
2024-04-16T14:03:45.338Z,98894.40
2024-04-16T14:08:44.276Z,98886.20
2024-04-16T14:13:44.770Z,98903.00
2024-04-16T14:18:55.029Z,98904.40
2024-04-16T14:23:53.878Z,98904.20
2024-04-16T14:28:59.367Z,98910.60
2024-04-16T14:34:02.208Z,98893.40
2024-04-16T14:39:02.387Z,98881.00
2024-04-16T14:44:02.705Z,98902.80
2024-04-16T14:49:02.223Z,98918.40
2024-04-16T14:54:01.792Z,98906.80
2024-04-16T14:59:00.988Z,98891.00
2024-04-16T15:03:59.847Z,98887.00
2024-04-16T15:09:00.068Z,98894.80
2024-04-16T15:14:02.367Z,98884.00
2024-04-16T15:19:01.481Z,98893.00
2024-04-16T15:24:01.271Z,98900.80
2024-04-16T15:29:03.071Z,98920.60
2024-04-16T15:34:01.898Z,98912.80
2024-04-16T15:39:01.126Z,98925.20
2024-04-16T15:44:09.253Z,98928.80
2024-04-16T15:49:12.905Z,98930.80
2024-04-16T15:54:11.666Z,98931.60
2024-04-16T15:59:10.676Z,98930.20
2024-04-16T16:04:10.056Z,98935.60
2024-04-16T16:09:09.699Z,98926.00
2024-04-16T16:14:08.622Z,98924.20
2024-04-16T16:19:08.218Z,98923.60
2024-04-16T16:24:09.821Z,98916.20
2024-04-16T16:29:08.684Z,98917.20
2024-04-16T16:34:09.903Z,98918.80
2024-04-16T16:39:11.624Z,98921.80
2024-04-16T16:44:12.352Z,98920.00
2024-04-16T16:49:11.124Z,98938.20
2024-04-16T16:54:10.783Z,98946.40
2024-04-16T16:59:09.360Z,98938.00
2024-04-16T17:04:09.142Z,98926.60
2024-04-16T17:09:07.748Z,98930.80
2024-04-16T17:14:07.919Z,98925.60
2024-04-16T17:19:08.521Z,98927.00
2024-04-16T17:24:10.793Z,98935.20
2024-04-16T17:29:09.614Z,98933.60
2024-04-16T17:34:07.794Z,98941.00
2024-04-16T17:39:11.233Z,98953.40
2024-04-16T17:44:10.606Z,98976.80
2024-04-16T17:49:10.057Z,99008.00
2024-04-16T17:54:11.744Z,98964.40
2024-04-16T17:59:11.765Z,98967.00
2024-04-16T18:04:11.323Z,99020.20
2024-04-16T18:09:10.815Z,99030.20
2024-04-16T18:14:13.943Z,99053.40
2024-04-16T18:19:13.243Z,99054.60
2024-04-16T18:24:14.210Z,99036.40
2024-04-16T18:29:13.112Z,99023.40
2024-04-16T18:34:11.873Z,99006.60
2024-04-16T18:39:10.990Z,99001.40
2024-04-16T18:44:10.646Z,99010.80
2024-04-16T18:49:10.818Z,98995.20
2024-04-16T18:54:09.547Z,98976.80
2024-04-16T18:59:08.667Z,98978.00
2024-04-16T19:04:07.203Z,98968.20
2024-04-16T19:09:06.401Z,98972.20
2024-04-16T19:14:07.096Z,98963.20
2024-04-16T19:19:08.791Z,98965.20
2024-04-16T19:24:09.316Z,98970.00
2024-04-16T19:29:08.316Z,98968.00
2024-04-16T19:34:07.522Z,98964.20
2024-04-16T19:39:06.886Z,98967.60
2024-04-16T19:44:08.130Z,98973.80
2024-04-16T19:49:08.196Z,98969.00
2024-04-16T19:54:07.410Z,98964.20
2024-04-16T19:59:07.112Z,98965.60
2024-04-16T20:04:06.489Z,98968.20
2024-04-16T20:09:06.569Z,98964.20
2024-04-16T20:14:05.936Z,98955.40
2024-04-16T20:19:08.232Z,98953.20
2024-04-16T20:24:12.201Z,98943.20
2024-04-16T20:29:11.862Z,98942.60
2024-04-16T20:34:11.122Z,98935.80
2024-04-16T20:39:11.547Z,98930.20
2024-04-16T20:44:10.562Z,98928.40
2024-04-16T20:49:09.395Z,98927.80
2024-04-16T20:54:11.027Z,98929.20
2024-04-16T20:59:12.516Z,98939.00
2024-04-16T21:04:12.298Z,98936.60
2024-04-16T21:09:11.606Z,98930.40
2024-04-16T21:14:14.768Z,98938.40
2024-04-16T21:19:18.344Z,98941.00
2024-04-16T21:24:18.123Z,98942.60
2024-04-16T21:29:22.141Z,98945.40
2024-04-16T21:34:37.819Z,98949.00
2024-04-16T21:40:20.914Z,98948.40
2024-04-16T21:45:24.469Z,98950.20
2024-04-16T21:50:31.637Z,98958.20
2024-04-16T21:55:35.552Z,98957.00
2024-04-16T22:01:06.478Z,98962.00
2024-04-16T22:06:06.752Z,98960.80
2024-04-16T22:11:09.984Z,98959.60
2024-04-16T22:16:24.298Z,98955.60
2024-04-16T22:21:24.756Z,98959.60
2024-04-16T22:26:55.181Z,98951.00
2024-04-16T22:32:04.825Z,98958.40
2024-04-16T22:37:08.073Z,98944.60
2024-04-16T22:42:10.724Z,98945.80
2024-04-16T22:47:12.006Z,98946.20
2024-04-16T22:52:12.943Z,98940.80
2024-04-16T22:57:12.335Z,98945.60
2024-04-16T23:02:11.713Z,98952.60
2024-04-16T23:07:10.430Z,98949.60
2024-04-16T23:12:11.311Z,98952.60
2024-04-16T23:17:10.822Z,98950.80
2024-04-16T23:22:12.518Z,98947.80
2024-04-16T23:27:11.671Z,98954.00
2024-04-16T23:32:11.451Z,98967.20
2024-04-16T23:37:11.349Z,98962.80
2024-04-16T23:42:10.613Z,98961.40
2024-04-16T23:47:11.679Z,98964.00
2024-04-16T23:52:11.042Z,98965.60
2024-04-16T23:57:12.180Z,98966.00
